sensor_id;sensor_type;location;lat;lon;timestamp;P1;durP1;ratioP1;P2;durP2;ratioP2
29902;SDS011;30288;50.514;9.678;2023-05-29T00:01:37;8.07;;;4.00;;
29902;SDS011;30288;50.514;9.678;2023-05-29T00:03:42;10.98;;;4.05;;
29902;SDS011;30288;50.514;9.678;2023-05-29T00:05:51;13.13;;;4.78;;
29902;SDS011;30288;50.514;9.678;2023-05-29T00:07:56;9.93;;;4.78;;
29902;SDS011;30288;50.514;9.678;2023-05-29T00:10:01;9.88;;;4.72;;
29902;SDS011;30288;50.514;9.678;2023-05-29T00:12:07;9.02;;;4.15;;
29902;SDS011;30288;50.514;9.678;2023-05-29T00:14:13;8.52;;;4.57;;
29902;SDS011;30288;50.514;9.678;2023-05-29T00:16:21;11.02;;;4.28;;
29902;SDS011;30288;50.514;9.678;2023-05-29T00:18:26;9.25;;;4.38;;
29902;SDS011;30288;50.514;9.678;2023-05-29T00:20:32;10.35;;;3.90;;
29902;SDS011;30288;50.514;9.678;2023-05-29T00:22:40;10.98;;;5.22;;
29902;SDS011;30288;50.514;9.678;2023-05-29T00:24:45;9.27;;;4.25;;
29902;SDS011;30288;50.514;9.678;2023-05-29T00:26:51;8.15;;;4.35;;
29902;SDS011;30288;50.514;9.678;2023-05-29T00:28:56;10.20;;;4.72;;
29902;SDS011;30288;50.514;9.678;2023-05-29T00:31:01;9.30;;;4.90;;
29902;SDS011;30288;50.514;9.678;2023-05-29T00:33:06;14.15;;;5.45;;
29902;SDS011;30288;50.514;9.678;2023-05-29T00:35:12;8.77;;;4.60;;
29902;SDS011;30288;50.514;9.678;2023-05-29T00:37:17;15.70;;;5.47;;
29902;SDS011;30288;50.514;9.678;2023-05-29T00:39:25;10.30;;;5.28;;
29902;SDS011;30288;50.514;9.678;2023-05-29T00:41:31;13.52;;;6.22;;
29902;SDS011;30288;50.514;9.678;2023-05-29T00:43:36;9.65;;;4.72;;
29902;SDS011;30288;50.514;9.678;2023-05-29T00:45:41;10.05;;;5.20;;
29902;SDS011;30288;50.514;9.678;2023-05-29T00:47:46;11.48;;;5.72;;
29902;SDS011;30288;50.514;9.678;2023-05-29T00:49:52;9.23;;;5.22;;
29902;SDS011;30288;50.514;9.678;2023-05-29T00:51:59;11.48;;;5.55;;
29902;SDS011;30288;50.514;9.678;2023-05-29T00:54:05;12.43;;;6.03;;
29902;SDS011;30288;50.514;9.678;2023-05-29T00:56:14;10.27;;;5.43;;
29902;SDS011;30288;50.514;9.678;2023-05-29T00:58:19;11.07;;;4.55;;
29902;SDS011;30288;50.514;9.678;2023-05-29T01:00:25;10.98;;;5.00;;
29902;SDS011;30288;50.514;9.678;2023-05-29T01:02:32;10.98;;;5.60;;
29902;SDS011;30288;50.514;9.678;2023-05-29T01:04:38;12.57;;;5.40;;
29902;SDS011;30288;50.514;9.678;2023-05-29T01:06:43;12.75;;;5.65;;
29902;SDS011;30288;50.514;9.678;2023-05-29T01:08:48;11.57;;;5.28;;
29902;SDS011;30288;50.514;9.678;2023-05-29T01:10:56;8.95;;;5.10;;
29902;SDS011;30288;50.514;9.678;2023-05-29T01:13:15;13.07;;;5.85;;
29902;SDS011;30288;50.514;9.678;2023-05-29T01:15:27;11.98;;;6.15;;
29902;SDS011;30288;50.514;9.678;2023-05-29T01:17:43;11.70;;;5.35;;
29902;SDS011;30288;50.514;9.678;2023-05-29T01:20:07;12.40;;;5.65;;
29902;SDS011;30288;50.514;9.678;2023-05-29T01:22:25;11.05;;;6.22;;
29902;SDS011;30288;50.514;9.678;2023-05-29T01:24:47;11.98;;;6.15;;
29902;SDS011;30288;50.514;9.678;2023-05-29T01:26:58;12.05;;;6.07;;
29902;SDS011;30288;50.514;9.678;2023-05-29T01:29:08;13.93;;;6.10;;
29902;SDS011;30288;50.514;9.678;2023-05-29T01:31:19;12.48;;;6.30;;
29902;SDS011;30288;50.514;9.678;2023-05-29T01:33:28;11.80;;;6.13;;
29902;SDS011;30288;50.514;9.678;2023-05-29T01:35:33;10.95;;;6.45;;
29902;SDS011;30288;50.514;9.678;2023-05-29T01:37:38;11.55;;;6.00;;
29902;SDS011;30288;50.514;9.678;2023-05-29T01:39:43;12.95;;;6.22;;
29902;SDS011;30288;50.514;9.678;2023-05-29T01:41:49;11.60;;;5.47;;
29902;SDS011;30288;50.514;9.678;2023-05-29T01:43:58;13.15;;;6.55;;
29902;SDS011;30288;50.514;9.678;2023-05-29T01:46:04;10.75;;;5.70;;
29902;SDS011;30288;50.514;9.678;2023-05-29T01:48:10;11.15;;;5.03;;
29902;SDS011;30288;50.514;9.678;2023-05-29T01:50:15;12.15;;;5.72;;
29902;SDS011;30288;50.514;9.678;2023-05-29T01:52:22;14.73;;;5.90;;
29902;SDS011;30288;50.514;9.678;2023-05-29T01:54:29;11.88;;;5.85;;
29902;SDS011;30288;50.514;9.678;2023-05-29T01:56:34;11.02;;;5.35;;
29902;SDS011;30288;50.514;9.678;2023-05-29T01:58:40;10.38;;;5.55;;
29902;SDS011;30288;50.514;9.678;2023-05-29T02:00:49;11.07;;;5.55;;
29902;SDS011;30288;50.514;9.678;2023-05-29T02:02:55;14.32;;;5.80;;
29902;SDS011;30288;50.514;9.678;2023-05-29T02:05:00;11.13;;;6.55;;
29902;SDS011;30288;50.514;9.678;2023-05-29T02:07:06;11.77;;;5.75;;
29902;SDS011;30288;50.514;9.678;2023-05-29T02:09:13;15.57;;;6.07;;
29902;SDS011;30288;50.514;9.678;2023-05-29T02:11:21;13.13;;;5.70;;
29902;SDS011;30288;50.514;9.678;2023-05-29T02:13:27;11.32;;;5.00;;
29902;SDS011;30288;50.514;9.678;2023-05-29T02:15:32;15.50;;;5.55;;
29902;SDS011;30288;50.514;9.678;2023-05-29T02:17:40;11.30;;;4.65;;
29902;SDS011;30288;50.514;9.678;2023-05-29T02:19:45;10.18;;;4.28;;
29902;SDS011;30288;50.514;9.678;2023-05-29T02:21:51;9.50;;;4.13;;
29902;SDS011;30288;50.514;9.678;2023-05-29T02:23:56;9.27;;;4.00;;
29902;SDS011;30288;50.514;9.678;2023-05-29T02:26:01;8.80;;;4.35;;
29902;SDS011;30288;50.514;9.678;2023-05-29T02:28:06;7.43;;;4.22;;
29902;SDS011;30288;50.514;9.678;2023-05-29T02:30:13;9.75;;;4.63;;
29902;SDS011;30288;50.514;9.678;2023-05-29T02:32:18;11.93;;;4.78;;
29902;SDS011;30288;50.514;9.678;2023-05-29T02:34:26;9.45;;;4.63;;
29902;SDS011;30288;50.514;9.678;2023-05-29T02:36:32;11.23;;;5.45;;
29902;SDS011;30288;50.514;9.678;2023-05-29T02:38:39;10.48;;;5.18;;
29902;SDS011;30288;50.514;9.678;2023-05-29T02:40:44;11.00;;;5.38;;
29902;SDS011;30288;50.514;9.678;2023-05-29T02:42:50;11.43;;;5.07;;
29902;SDS011;30288;50.514;9.678;2023-05-29T02:44:55;10.38;;;5.05;;
29902;SDS011;30288;50.514;9.678;2023-05-29T02:47:00;13.10;;;5.40;;
29902;SDS011;30288;50.514;9.678;2023-05-29T02:49:06;13.00;;;5.78;;
29902;SDS011;30288;50.514;9.678;2023-05-29T02:51:13;11.85;;;5.50;;
29902;SDS011;30288;50.514;9.678;2023-05-29T02:53:19;12.88;;;5.75;;
29902;SDS011;30288;50.514;9.678;2023-05-29T02:55:24;16.20;;;5.78;;
29902;SDS011;30288;50.514;9.678;2023-05-29T02:57:30;12.48;;;6.00;;
29902;SDS011;30288;50.514;9.678;2023-05-29T02:59:35;11.55;;;5.50;;
29902;SDS011;30288;50.514;9.678;2023-05-29T03:01:41;11.50;;;5.53;;
29902;SDS011;30288;50.514;9.678;2023-05-29T03:03:47;12.85;;;5.78;;
29902;SDS011;30288;50.514;9.678;2023-05-29T03:05:52;14.18;;;6.10;;
29902;SDS011;30288;50.514;9.678;2023-05-29T03:08:00;13.23;;;6.03;;
29902;SDS011;30288;50.514;9.678;2023-05-29T03:10:06;11.63;;;5.75;;
29902;SDS011;30288;50.514;9.678;2023-05-29T03:12:12;11.35;;;5.75;;
29902;SDS011;30288;50.514;9.678;2023-05-29T03:14:18;12.25;;;5.97;;
29902;SDS011;30288;50.514;9.678;2023-05-29T03:16:24;13.30;;;6.43;;
29902;SDS011;30288;50.514;9.678;2023-05-29T03:18:31;12.85;;;6.40;;
29902;SDS011;30288;50.514;9.678;2023-05-29T03:20:37;11.02;;;6.65;;
29902;SDS011;30288;50.514;9.678;2023-05-29T03:22:43;15.88;;;6.43;;
29902;SDS011;30288;50.514;9.678;2023-05-29T03:24:51;12.13;;;5.43;;
29902;SDS011;30288;50.514;9.678;2023-05-29T03:26:56;8.82;;;5.38;;
29902;SDS011;30288;50.514;9.678;2023-05-29T03:29:02;12.13;;;5.93;;
29902;SDS011;30288;50.514;9.678;2023-05-29T03:31:08;10.25;;;5.65;;
29902;SDS011;30288;50.514;9.678;2023-05-29T03:33:14;13.80;;;6.00;;
29902;SDS011;30288;50.514;9.678;2023-05-29T15:11:48;6.82;;;3.40;;
29902;SDS011;30288;50.514;9.678;2023-05-29T15:13:53;9.30;;;3.22;;
